Terminal Aerodrome Forecast
Issued by NWS St Louis, MO

Home | Current Version | Previous Version | Text Only | Print | Product List | Glossary On
Versions: 1 2 3 4 5 6 7 8 9 10 11 12 13 14 15 16 17
000
FTUS43 KLSX 260500
TAFCOU
TAF
KCOU 260521Z 2606/2706 14007KT P6SM OVC120
     FM261400 17008KT 2SM -SN BR SCT006 OVC010
     FM261800 27011KT P6SM -SN OVC015
     FM270000 31011KT P6SM OVC025=

USA.gov is the U.S. government's official web portal to all federal, state and local government web resources and services.